Time;durP1;ratioP1;P1;durP2;ratioP2;P2;SDS_P1;SDS_P2;PMS_P1;PMS_P2;Temp;Humidity;BMP_temperature;BMP_pressure;BME280_temperature;BME280_humidity;BME280_pressure;Samples;Min_cycle;Max_cycle;Signal;HPM_P1;HPM_P2
2023/08/18 00:01:32;;;;;;;6.45;2.05;;;17.60;99.90;;;;;;4890065;29;20180;-70
2023/08/18 00:03:58;;;;;;;4.05;2.20;;;17.60;99.90;;;;;;4892420;29;20171;-70
2023/08/18 00:06:24;;;;;;;2.63;1.92;;;17.50;99.90;;;;;;4895353;29;20100;-73
2023/08/18 00:08:50;;;;;;;3.45;2.17;;;17.50;99.90;;;;;;4893294;29;20086;-71
2023/08/18 00:11:16;;;;;;;5.05;2.20;;;17.50;99.90;;;;;;4890578;29;20053;-70
2023/08/18 00:13:42;;;;;;;3.30;2.10;;;17.40;99.90;;;;;;4874050;29;20060;-71
2023/08/18 00:16:07;;;;;;;4.55;2.35;;;17.40;99.90;;;;;;4896937;29;20049;-70
2023/08/18 00:18:33;;;;;;;3.88;2.35;;;17.30;99.90;;;;;;4884939;29;20052;-70
2023/08/18 00:20:59;;;;;;;4.47;2.30;;;17.30;99.90;;;;;;4876659;29;20056;-70
2023/08/18 00:23:25;;;;;;;5.38;2.78;;;17.20;99.90;;;;;;4886450;29;20048;-74
2023/08/18 00:25:50;;;;;;;4.85;2.45;;;17.10;99.90;;;;;;4894686;29;20215;-71
2023/08/18 00:28:16;;;;;;;3.67;2.40;;;17.20;99.90;;;;;;4895913;29;20037;-70
2023/08/18 00:30:42;;;;;;;5.20;2.60;;;17.10;99.90;;;;;;4895195;29;20049;-70
2023/08/18 00:33:07;;;;;;;4.05;2.33;;;17.10;99.90;;;;;;4891181;29;20057;-70
2023/08/18 00:35:34;;;;;;;5.15;2.70;;;17.10;99.90;;;;;;4877398;29;20041;-69
2023/08/18 00:38:00;;;;;;;7.13;2.47;;;17.10;99.90;;;;;;4893014;29;20044;-69
2023/08/18 00:40:25;;;;;;;4.28;2.58;;;17.00;99.90;;;;;;4864590;29;20381;-69
2023/08/18 00:42:52;;;;;;;5.28;2.60;;;17.00;99.90;;;;;;4895835;29;20044;-69
2023/08/18 00:45:17;;;;;;;3.50;2.40;;;17.00;99.90;;;;;;4889792;29;20053;-71
2023/08/18 00:47:44;;;;;;;3.85;2.60;;;17.00;99.90;;;;;;4868403;29;20440;-71
2023/08/18 00:50:11;;;;;;;4.18;2.50;;;17.10;99.90;;;;;;4888316;29;20376;-70
2023/08/18 00:52:41;;;;;;;5.65;2.50;;;17.10;99.90;;;;;;4896092;29;20049;-70
2023/08/18 00:55:08;;;;;;;5.32;2.40;;;17.00;99.90;;;;;;4871399;29;20053;-70
2023/08/18 00:57:35;;;;;;;5.78;2.72;;;17.00;99.90;;;;;;4844600;29;20051;-70
2023/08/18 01:00:02;;;;;;;5.68;2.65;;;17.00;99.90;;;;;;4874066;29;20057;-69
2023/08/18 01:02:28;;;;;;;6.43;3.00;;;17.00;99.90;;;;;;4876736;29;20049;-70
2023/08/18 01:05:00;;;;;;;4.18;2.58;;;17.00;99.90;;;;;;4871004;29;20113;-70
2023/08/18 01:07:26;;;;;;;5.03;3.03;;;17.00;99.90;;;;;;4862106;29;20121;-70
2023/08/18 01:09:53;;;;;;;4.10;2.63;;;17.00;99.90;;;;;;4876012;29;20225;-69
2023/08/18 01:13:10;;;;;;;4.32;3.03;;;17.00;99.90;;;;;;4876407;29;20129;-70
2023/08/18 01:15:40;;;;;;;3.60;2.50;;;17.00;99.90;;;;;;4820741;29;20046;-70
2023/08/18 01:18:06;;;;;;;5.68;2.80;;;17.10;99.90;;;;;;4856909;29;20061;-70
2023/08/18 01:20:33;;;;;;;4.90;3.20;;;17.10;99.90;;;;;;4881308;29;20044;-71
2023/08/18 01:23:00;;;;;;;6.82;2.97;;;17.00;99.90;;;;;;4864161;29;20053;-70
2023/08/18 01:25:26;;;;;;;4.68;3.13;;;17.10;99.90;;;;;;4886577;29;20044;-70
2023/08/18 01:27:54;;;;;;;7.88;3.60;;;17.10;99.90;;;;;;4883767;29;20060;-70
2023/08/18 01:30:20;;;;;;;4.05;2.90;;;17.10;99.90;;;;;;4880832;29;20499;-69
2023/08/18 01:33:01;;;;;;;5.85;3.20;;;17.10;99.90;;;;;;4879223;29;20041;-71
2023/08/18 01:35:29;;;;;;;5.00;2.97;;;17.10;99.90;;;;;;4882080;29;20148;-69
2023/08/18 01:37:56;;;;;;;5.05;3.30;;;17.10;99.90;;;;;;4879146;29;20175;-70
2023/08/18 01:40:26;;;;;;;4.55;3.00;;;17.20;99.90;;;;;;4879824;29;20444;-71
2023/08/18 01:42:52;;;;;;;5.15;3.08;;;17.20;99.90;;;;;;4880485;29;20053;-70
2023/08/18 01:45:18;;;;;;;4.68;3.17;;;17.20;99.90;;;;;;4881009;29;20049;-70
2023/08/18 01:47:44;;;;;;;4.90;3.33;;;17.20;99.90;;;;;;4879473;29;20057;-70
2023/08/18 01:50:10;;;;;;;4.38;2.92;;;17.20;99.90;;;;;;4878756;29;20055;-70
2023/08/18 01:52:36;;;;;;;5.18;3.40;;;17.20;99.90;;;;;;4880062;29;20044;-73
2023/08/18 01:55:02;;;;;;;7.30;2.97;;;17.20;99.90;;;;;;4888778;29;20127;-71
2023/08/18 01:57:27;;;;;;;5.82;3.25;;;17.20;99.90;;;;;;4863593;29;20508;-70
2023/08/18 01:59:53;;;;;;;5.50;2.95;;;17.20;99.90;;;;;;4878603;29;20196;-69
2023/08/18 02:02:19;;;;;;;8.82;2.92;;;17.20;99.90;;;;;;4879258;29;20053;-70
2023/08/18 02:04:45;;;;;;;5.93;3.30;;;17.20;99.90;;;;;;4883240;29;20044;-71
2023/08/18 02:07:10;;;;;;;6.55;3.45;;;17.30;99.90;;;;;;4863583;29;20049;-70
2023/08/18 02:09:39;;;;;;;7.63;3.30;;;17.20;99.90;;;;;;4863785;29;20041;-71
2023/08/18 02:12:06;;;;;;;4.80;3.30;;;17.20;99.90;;;;;;4863428;29;20103;-71
2023/08/18 02:14:32;;;;;;;5.65;3.58;;;17.20;99.90;;;;;;4880657;29;20061;-70
2023/08/18 02:16:58;;;;;;;5.10;3.67;;;17.20;99.90;;;;;;4864342;29;20049;-70
2023/08/18 02:19:23;;;;;;;6.10;3.42;;;17.20;99.90;;;;;;4880471;29;20045;-70
2023/08/18 02:21:49;;;;;;;5.35;3.50;;;17.20;99.90;;;;;;4878399;29;20495;-70
2023/08/18 02:24:15;;;;;;;6.05;3.53;;;17.20;99.90;;;;;;4879749;29;20045;-70
2023/08/18 02:26:41;;;;;;;7.88;3.50;;;17.10;99.90;;;;;;4864591;29;20041;-74
2023/08/18 02:29:07;;;;;;;6.05;3.67;;;17.20;99.90;;;;;;4878481;29;20056;-70
2023/08/18 02:31:33;;;;;;;6.25;4.05;;;17.10;99.90;;;;;;4885917;29;20491;-70
2023/08/18 02:33:58;;;;;;;6.60;3.55;;;17.20;99.90;;;;;;4879319;29;20057;-70
2023/08/18 02:36:24;;;;;;;6.43;3.50;;;17.10;99.90;;;;;;4879470;29;20084;-70
2023/08/18 02:38:50;;;;;;;5.80;3.90;;;17.20;99.90;;;;;;4878491;29;20433;-69
2023/08/18 02:41:17;;;;;;;5.55;3.60;;;17.20;99.90;;;;;;4863272;29;20464;-70
2023/08/18 02:43:47;;;;;;;5.60;3.85;;;17.20;99.90;;;;;;4879081;29;20087;-70
2023/08/18 02:46:12;;;;;;;6.97;3.78;;;17.20;99.90;;;;;;4878786;29;20060;-71
2023/08/18 02:48:38;;;;;;;5.72;3.72;;;17.10;99.90;;;;;;4864188;29;20064;-70
2023/08/18 02:51:05;;;;;;;7.03;3.95;;;17.10;99.90;;;;;;4862715;29;20705;-69
2023/08/18 02:53:32;;;;;;;7.78;4.25;;;17.10;99.90;;;;;;4879319;29;20048;-71
2023/08/18 02:55:58;;;;;;;7.32;4.30;;;17.10;99.90;;;;;;4878216;29;20142;-70
2023/08/18 02:58:26;;;;;;;5.95;4.00;;;17.10;99.90;;;;;;4879810;29;21555;-70
2023/08/18 03:00:52;;;;;;;5.05;4.20;;;17.10;99.90;;;;;;4885942;29;20534;-70
2023/08/18 03:03:18;;;;;;;5.53;4.00;;;17.10;99.90;;;;;;4847569;29;20077;-70
2023/08/18 03:05:45;;;;;;;6.93;4.95;;;17.10;99.90;;;;;;4878496;29;20048;-69
2023/08/18 03:08:11;;;;;;;8.00;4.10;;;17.10;99.90;;;;;;4869938;29;20582;-70
2023/08/18 03:10:37;;;;;;;6.30;4.45;;;17.10;99.90;;;;;;4863408;29;20136;-70
2023/08/18 03:13:05;;;;;;;5.38;4.15;;;17.10;99.90;;;;;;4877587;29;20091;-69
2023/08/18 03:15:31;;;;;;;5.50;3.90;;;17.10;99.90;;;;;;4863105;29;20105;-70
2023/08/18 03:17:57;;;;;;;7.93;4.10;;;17.20;99.90;;;;;;4856318;29;20060;-70
2023/08/18 03:20:23;;;;;;;6.85;4.10;;;17.20;99.90;;;;;;4860756;29;20506;-71
2023/08/18 03:22:49;;;;;;;5.53;4.28;;;17.10;99.90;;;;;;4878511;29;20088;-74
2023/08/18 03:25:15;;;;;;;7.10;4.03;;;17.20;99.90;;;;;;4876912;29;20049;-72
2023/08/18 03:27:41;;;;;;;6.90;4.65;;;17.20;99.90;;;;;;4876126;29;20510;-70
2023/08/18 03:30:07;;;;;;;7.75;4.10;;;17.20;99.90;;;;;;4879538;29;20052;-70
2023/08/18 03:32:33;;;;;;;7.05;4.40;;;17.20;99.90;;;;;;4886944;29;20048;-70
2023/08/18 03:34:58;;;;;;;5.57;4.05;;;17.20;99.90;;;;;;4856022;29;20060;-70
2023/08/18 03:37:24;;;;;;;11.68;4.40;;;17.20;99.90;;;;;;4895798;29;20080;-70
2023/08/18 03:39:54;;;;;;;9.07;4.90;;;17.20;99.90;;;;;;4880249;29;20067;-71
2023/08/18 03:42:21;;;;;;;7.32;4.15;;;17.20;99.90;;;;;;4878291;29;20049;-70
2023/08/18 03:44:47;;;;;;;7.43;4.80;;;17.20;99.90;;;;;;4893942;29;20044;-70
2023/08/18 03:47:12;;;;;;;7.38;4.90;;;17.20;99.90;;;;;;4891755;29;20041;-70
2023/08/18 03:49:38;;;;;;;7.07;5.03;;;17.20;99.90;;;;;;4865553;29;20383;-70
2023/08/18 03:52:04;;;;;;;7.97;4.90;;;17.20;99.90;;;;;;4893861;29;20079;-70
2023/08/18 03:54:30;;;;;;;10.13;5.13;;;17.20;99.90;;;;;;4887609;29;20501;-70
2023/08/18 03:56:56;;;;;;;9.48;4.90;;;17.20;99.90;;;;;;4890377;29;20049;-70
2023/08/18 03:59:21;;;;;;;8.65;5.07;;;17.20;99.90;;;;;;4880344;29;20487;-70
2023/08/18 04:01:47;;;;;;;9.77;5.20;;;17.20;99.90;;;;;;4890229;29;20406;-70
2023/08/18 04:04:13;;;;;;;9.82;4.78;;;17.20;99.90;;;;;;4870389;29;20491;-70
2023/08/18 04:06:39;;;;;;;11.32;4.72;;;17.20;99.90;;;;;;4878531;29;20546;-70
2023/08/18 04:09:08;;;;;;;7.80;4.82;;;17.20;99.90;;;;;;4895579;29;20127;-70
2023/08/18 04:11:34;;;;;;;9.73;4.50;;;17.20;99.90;;;;;;4871876;29;20048;-71
2023/08/18 04:14:01;;;;;;;8.38;4.80;;;17.20;99.90;;;;;;4896065;29;20056;-70
2023/08/18 04:16:26;;;;;;;7.05;4.82;;;17.20;99.90;;;;;;4886147;29;20041;-71
2023/08/18 04:18:52;;;;;;;7.07;4.60;;;17.30;99.90;;;;;;4888194;29;20087;-70
2023/08/18 04:21:18;;;;;;;9.10;4.85;;;17.30;99.90;;;;;;4879587;29;20057;-70
2023/08/18 04:23:44;;;;;;;7.85;4.85;;;17.30;99.90;;;;;;4851613;29;20049;-71
2023/08/18 04:26:12;;;;;;;10.80;4.55;;;17.20;99.90;;;;;;4879850;29;20048;-70
2023/08/18 04:28:38;;;;;;;9.32;5.13;;;17.30;99.90;;;;;;4876991;29;20052;-70
2023/08/18 04:31:04;;;;;;;9.35;4.93;;;17.30;99.90;;;;;;4876071;29;20059;-70
2023/08/18 04:33:29;;;;;;;7.53;4.25;;;17.30;99.90;;;;;;4877471;29;20067;-70
2023/08/18 04:35:55;;;;;;;8.02;4.47;;;17.30;99.90;;;;;;4881708;29;20048;-71
2023/08/18 04:38:21;;;;;;;7.70;4.78;;;17.30;99.90;;;;;;4879761;29;20056;-70
2023/08/18 04:41:00;;;;;;;9.65;4.40;;;17.30;99.90;;;;;;4884354;29;20136;-70
2023/08/18 04:43:27;;;;;;;6.72;4.53;;;17.30;99.90;;;;;;4876786;29;20403;-70
2023/08/18 04:45:53;;;;;;;6.90;4.63;;;17.30;99.90;;;;;;4884415;29;20104;-70
2023/08/18 04:48:19;;;;;;;7.95;4.57;;;17.30;99.90;;;;;;4862137;29;20049;-69
2023/08/18 04:50:45;;;;;;;9.85;4.53;;;17.30;99.90;;;;;;4878187;29;20044;-70
2023/08/18 04:53:11;;;;;;;9.23;5.38;;;17.30;99.90;;;;;;4883365;29;20059;-70
2023/08/18 04:55:37;;;;;;;10.80;4.95;;;17.30;99.90;;;;;;4885215;29;20132;-69
2023/08/18 04:58:03;;;;;;;13.48;5.43;;;17.40;99.90;;;;;;4872617;29;20045;-73
2023/08/18 05:00:29;;;;;;;7.43;4.70;;;17.40;99.90;;;;;;4882916;29;20060;-71
2023/08/18 05:02:55;;;;;;;8.68;5.15;;;17.40;99.90;;;;;;4882541;29;20061;-70
2023/08/18 05:05:21;;;;;;;8.02;4.80;;;17.40;99.90;;;;;;4866664;29;20448;-70
2023/08/18 05:07:47;;;;;;;7.32;4.40;;;17.40;99.90;;;;;;4883531;29;20092;-70
2023/08/18 05:10:13;;;;;;;7.75;4.20;;;17.40;99.90;;;;;;4870998;29;20069;-69
2023/08/18 05:12:39;;;;;;;8.52;4.88;;;17.30;99.90;;;;;;4866776;29;20053;-70
2023/08/18 05:15:05;;;;;;;8.32;4.30;;;17.40;99.90;;;;;;4851781;29;20189;-74
2023/08/18 05:17:31;;;;;;;8.93;4.35;;;17.40;99.90;;;;;;4886324;29;20049;-69
2023/08/18 05:19:56;;;;;;;12.68;4.70;;;17.40;99.90;;;;;;4882789;29;20112;-70
2023/08/18 05:22:22;;;;;;;6.20;3.97;;;17.30;99.90;;;;;;4866437;29;20472;-73
2023/08/18 05:24:49;;;;;;;6.93;4.20;;;17.40;99.90;;;;;;4883709;29;20057;-70
2023/08/18 05:27:15;;;;;;;7.55;4.18;;;17.30;99.90;;;;;;4884208;29;20041;-71
2023/08/18 05:29:41;;;;;;;8.82;4.22;;;17.40;99.90;;;;;;4882576;29;20451;-69
2023/08/18 05:32:07;;;;;;;6.53;4.50;;;17.30;99.90;;;;;;4883755;29;20136;-73
2023/08/18 05:34:33;;;;;;;8.18;4.10;;;17.40;99.90;;;;;;4882784;29;20213;-70
2023/08/18 05:36:58;;;;;;;7.15;3.95;;;17.40;99.90;;;;;;4867060;29;20159;-71
2023/08/18 05:39:24;;;;;;;9.43;4.57;;;17.40;99.90;;;;;;4865917;29;20049;-70
2023/08/18 05:41:50;;;;;;;10.82;4.53;;;17.40;99.90;;;;;;4883731;29;20345;-70
2023/08/18 05:44:15;;;;;;;8.48;4.57;;;17.40;99.90;;;;;;4866809;29;20055;-69
2023/08/18 05:46:41;;;;;;;9.23;4.55;;;17.40;99.90;;;;;;4882267;29;20112;-70
2023/08/18 05:49:08;;;;;;;7.47;4.60;;;17.40;99.90;;;;;;4884383;29;20481;-70
2023/08/18 05:51:33;;;;;;;7.50;4.40;;;17.40;99.90;;;;;;4882442;29;20055;-71
2023/08/18 05:53:59;;;;;;;7.43;4.18;;;17.40;99.90;;;;;;4882344;29;20045;-70
2023/08/18 05:56:25;;;;;;;6.90;4.38;;;17.40;99.90;;;;;;4881293;29;20105;-71
2023/08/18 05:58:51;;;;;;;7.95;4.10;;;17.40;99.90;;;;;;4888391;29;20057;-72
2023/08/18 06:01:17;;;;;;;8.10;4.43;;;17.40;99.90;;;;;;4883000;29;20128;-70
2023/08/18 06:03:43;;;;;;;9.70;4.65;;;17.40;99.90;;;;;;4862119;29;20441;-70
2023/08/18 06:06:09;;;;;;;6.22;4.13;;;17.40;99.90;;;;;;4863706;29;20053;-71
2023/08/18 06:08:34;;;;;;;9.27;4.30;;;17.40;99.90;;;;;;4879601;29;20052;-71
2023/08/18 06:11:00;;;;;;;7.70;4.13;;;17.40;99.90;;;;;;4878908;29;20140;-70
2023/08/18 06:13:26;;;;;;;10.23;5.13;;;17.40;99.90;;;;;;4878355;29;20433;-70
2023/08/18 06:15:54;;;;;;;9.43;5.18;;;17.40;99.90;;;;;;4878686;29;20067;-70
2023/08/18 06:18:20;;;;;;;12.13;4.80;;;17.40;99.90;;;;;;4878146;29;20052;-70
2023/08/18 06:20:46;;;;;;;7.03;4.43;;;17.40;99.90;;;;;;4884902;29;20053;-69
2023/08/18 06:23:12;;;;;;;8.38;4.70;;;17.40;99.90;;;;;;4862938;29;20052;-69
2023/08/18 06:25:39;;;;;;;11.40;5.45;;;17.60;99.90;;;;;;4878410;29;20116;-69
2023/08/18 06:28:06;;;;;;;9.93;4.88;;;17.50;99.90;;;;;;4862609;29;20067;-70
2023/08/18 06:30:32;;;;;;;8.38;4.88;;;17.50;99.90;;;;;;4885400;29;20064;-71
2023/08/18 06:32:58;;;;;;;11.10;5.20;;;17.50;99.90;;;;;;4878894;29;20053;-68
2023/08/18 06:35:23;;;;;;;7.95;5.03;;;17.50;99.90;;;;;;4847627;29;20075;-70
2023/08/18 06:37:49;;;;;;;8.20;5.00;;;17.60;99.90;;;;;;4878153;29;20132;-70
2023/08/18 06:40:15;;;;;;;10.00;5.07;;;17.60;99.90;;;;;;4879873;29;20059;-72
2023/08/18 06:42:41;;;;;;;7.88;4.75;;;17.60;99.90;;;;;;4849147;29;20067;-70
2023/08/18 06:45:07;;;;;;;11.25;5.07;;;17.60;99.90;;;;;;4864328;29;20080;-70
2023/08/18 06:47:33;;;;;;;7.80;4.70;;;17.70;99.90;;;;;;4879151;29;20076;-70
2023/08/18 06:49:59;;;;;;;9.23;5.05;;;17.70;99.90;;;;;;4878137;29;20048;-70
2023/08/18 06:52:26;;;;;;;10.48;5.30;;;17.70;99.90;;;;;;4877988;29;20053;-69
2023/08/18 06:54:52;;;;;;;9.63;5.47;;;17.70;99.90;;;;;;4879236;29;20101;-71
2023/08/18 06:57:18;;;;;;;9.02;5.40;;;17.80;99.90;;;;;;4862759;29;20049;-71
2023/08/18 06:59:43;;;;;;;9.63;5.30;;;17.80;99.90;;;;;;4878485;29;20057;-70
2023/08/18 07:02:09;;;;;;;8.52;5.20;;;17.80;99.90;;;;;;4878350;29;20063;-70
2023/08/18 07:04:36;;;;;;;8.02;5.60;;;17.80;99.90;;;;;;4862108;29;20453;-71
2023/08/18 07:07:02;;;;;;;9.80;6.07;;;17.80;99.90;;;;;;4862356;29;20120;-70
2023/08/18 07:09:27;;;;;;;10.98;5.70;;;17.80;99.90;;;;;;4877616;29;20048;-69
2023/08/18 07:11:53;;;;;;;12.50;6.00;;;17.80;99.90;;;;;;4877980;29;20045;-71
2023/08/18 07:14:19;;;;;;;12.82;6.10;;;17.90;99.90;;;;;;4877630;29;20547;-69
2023/08/18 07:16:44;;;;;;;9.63;5.70;;;17.90;99.90;;;;;;4877600;29;20171;-71
2023/08/18 07:19:10;;;;;;;9.95;5.63;;;17.90;99.90;;;;;;4877541;29;20475;-72
2023/08/18 07:21:36;;;;;;;9.98;6.03;;;17.80;99.90;;;;;;4876718;29;20136;-69
2023/08/18 07:24:03;;;;;;;13.70;7.03;;;17.90;99.90;;;;;;4877974;29;20049;-70
2023/08/18 07:26:29;;;;;;;13.13;6.28;;;17.90;99.90;;;;;;4877457;29;20395;-69
2023/08/18 07:28:55;;;;;;;9.07;6.40;;;17.90;99.90;;;;;;4879154;29;20057;-71
2023/08/18 07:31:21;;;;;;;11.65;6.57;;;17.90;99.90;;;;;;4878337;29;20083;-72
2023/08/18 07:33:47;;;;;;;10.93;6.30;;;17.90;99.90;;;;;;4877478;29;20049;-70
2023/08/18 07:36:13;;;;;;;10.00;7.00;;;17.90;99.90;;;;;;4862343;29;20510;-70
2023/08/18 07:38:38;;;;;;;9.27;6.18;;;17.90;99.90;;;;;;4861474;29;20045;-70
2023/08/18 07:41:05;;;;;;;13.93;6.18;;;18.00;99.90;;;;;;4877879;29;20045;-71
2023/08/18 07:43:31;;;;;;;16.58;6.80;;;18.00;99.90;;;;;;4877354;29;20140;-71
2023/08/18 07:45:57;;;;;;;11.25;6.32;;;18.00;99.90;;;;;;4877472;29;20065;-70
2023/08/18 07:48:23;;;;;;;14.40;6.53;;;18.00;99.90;;;;;;4877311;29;20109;-70
2023/08/18 07:50:49;;;;;;;11.45;6.43;;;18.00;99.90;;;;;;4871668;29;20091;-70
2023/08/18 07:53:14;;;;;;;11.77;6.55;;;18.00;99.90;;;;;;4883797;29;20086;-70
2023/08/18 07:55:40;;;;;;;13.38;7.80;;;18.00;99.90;;;;;;4877831;29;20065;-69
2023/08/18 07:58:06;;;;;;;15.63;7.20;;;18.10;99.90;;;;;;4877100;29;20488;-69
2023/08/18 08:00:32;;;;;;;12.18;7.95;;;18.10;99.90;;;;;;4877981;29;20488;-69
2023/08/18 08:02:58;;;;;;;11.35;7.25;;;18.10;99.90;;;;;;4872690;29;20052;-71
2023/08/18 08:05:24;;;;;;;13.25;7.55;;;18.10;99.90;;;;;;4862510;29;20049;-69
2023/08/18 08:07:50;;;;;;;13.48;8.05;;;18.10;99.90;;;;;;4861062;29;20132;-69
2023/08/18 08:10:17;;;;;;;15.18;8.40;;;18.20;99.90;;;;;;4879033;29;20500;-81
2023/08/18 08:12:43;;;;;;;12.57;7.40;;;18.20;99.90;;;;;;4880996;29;20124;-80
2023/08/18 08:15:11;;;;;;;18.13;8.10;;;18.30;99.90;;;;;;4878078;29;20045;-74
2023/08/18 08:17:37;;;;;;;18.25;8.20;;;18.30;99.90;;;;;;4877047;29;20068;-76
2023/08/18 08:20:08;;;;;;;14.50;6.82;;;18.30;99.90;;;;;;4877412;29;20092;-75
2023/08/18 08:22:34;;;;;;;13.45;6.60;;;18.40;99.90;;;;;;4877361;29;20499;-75
2023/08/18 08:24:59;;;;;;;13.20;6.82;;;18.50;99.90;;;;;;4889220;29;20132;-76
2023/08/18 08:27:25;;;;;;;11.30;6.60;;;18.60;99.90;;;;;;4877142;29;20049;-75
2023/08/18 08:29:51;;;;;;;13.50;6.43;;;18.60;99.90;;;;;;4878259;29;20045;-75
2023/08/18 08:32:18;;;;;;;10.68;6.18;;;18.70;99.90;;;;;;4877092;29;20580;-76
2023/08/18 08:34:50;;;;;;;12.77;6.25;;;18.70;99.90;;;;;;4881019;29;20049;-75
2023/08/18 08:37:17;;;;;;;12.77;6.25;;;18.80;99.90;;;;;;4878034;29;20395;-81
2023/08/18 08:39:42;;;;;;;10.38;5.65;;;19.00;99.90;;;;;;4862139;29;20131;-81
2023/08/18 08:42:09;;;;;;;12.38;6.35;;;19.10;99.90;;;;;;4878750;29;20115;-80
2023/08/18 08:44:35;;;;;;;13.88;5.75;;;19.10;99.90;;;;;;4865887;29;20045;-75
2023/08/18 08:47:01;;;;;;;10.27;5.20;;;19.20;99.90;;;;;;4883542;29;20236;-76
2023/08/18 08:49:30;;;;;;;9.00;4.68;;;19.20;99.90;;;;;;4876393;29;20132;-73
2023/08/18 08:52:02;;;;;;;9.35;4.85;;;19.30;99.90;;;;;;4891897;29;20429;-76
2023/08/18 08:54:30;;;;;;;10.32;4.43;;;19.20;99.90;;;;;;4877551;29;20106;-76
2023/08/18 08:56:59;;;;;;;9.50;4.82;;;19.20;99.90;;;;;;4877544;29;20057;-75
2023/08/18 08:59:25;;;;;;;7.63;4.63;;;19.30;99.90;;;;;;4878898;29;20069;-75
2023/08/18 09:01:52;;;;;;;6.80;4.15;;;19.30;99.90;;;;;;4876756;29;20056;-76
2023/08/18 09:04:19;;;;;;;9.63;4.40;;;19.30;99.90;;;;;;4877424;29;20546;-75
2023/08/18 09:06:45;;;;;;;9.82;4.78;;;19.40;99.90;;;;;;4877403;29;20041;-77
2023/08/18 09:09:12;;;;;;;9.38;4.30;;;19.50;99.90;;;;;;4878714;29;20120;-77
2023/08/18 09:11:46;;;;;;;10.75;4.80;;;19.50;99.90;;;;;;4876934;29;20053;-77
2023/08/18 09:14:16;;;;;;;12.13;4.57;;;19.50;99.90;;;;;;4878026;29;20493;-75
2023/08/18 09:16:45;;;;;;;8.60;4.50;;;19.60;99.90;;;;;;4877628;29;20077;-76
2023/08/18 09:19:15;;;;;;;11.50;4.38;;;19.60;99.90;;;;;;4861710;29;20100;-75
2023/08/18 09:21:41;;;;;;;7.28;4.18;;;19.70;99.90;;;;;;4876147;29;20511;-75
2023/08/18 09:24:08;;;;;;;10.50;4.40;;;19.70;99.90;;;;;;4863666;29;20053;-76
2023/08/18 09:26:34;;;;;;;11.18;4.53;;;19.70;99.90;;;;;;4878175;29;20176;-76
2023/08/18 09:28:59;;;;;;;11.43;5.28;;;19.80;99.90;;;;;;4876851;29;20044;-74
2023/08/18 09:31:25;;;;;;;8.82;5.32;;;19.80;99.90;;;;;;4877017;29;20076;-77
2023/08/18 09:33:51;;;;;;;12.88;5.88;;;19.80;99.90;;;;;;4878080;29;20048;-77
2023/08/18 09:36:18;;;;;;;10.85;5.40;;;19.90;99.90;;;;;;4883764;29;20053;-77
2023/08/18 09:38:44;;;;;;;11.20;5.47;;;19.90;99.90;;;;;;4884415;29;20044;-77
2023/08/18 09:41:11;;;;;;;11.48;5.28;;;19.90;99.90;;;;;;4861519;29;22518;-75
2023/08/18 09:43:38;;;;;;;8.88;5.80;;;19.90;99.90;;;;;;4880721;29;20059;-75
2023/08/18 09:46:05;;;;;;;9.25;5.80;;;19.90;99.90;;;;;;4880521;29;20057;-73
2023/08/18 09:48:39;;;;;;;11.48;6.35;;;19.90;99.90;;;;;;4880181;29;20060;-76
2023/08/18 09:51:12;;;;;;;12.25;6.05;;;19.90;99.90;;;;;;4879122;29;20060;-75
2023/08/18 09:53:47;;;;;;;10.15;5.57;;;20.00;99.90;;;;;;4867686;29;20063;-75
2023/08/18 09:56:14;;;;;;;8.50;5.43;;;20.10;99.90;;;;;;4881285;29;20059;-75
2023/08/18 09:58:55;;;;;;;8.57;5.13;;;20.20;99.90;;;;;;4879367;29;20132;-74
2023/08/18 10:01:22;;;;;;;8.98;5.55;;;20.30;99.90;;;;;;4880474;29;20071;-77
2023/08/18 10:03:49;;;;;;;11.30;5.95;;;20.40;99.90;;;;;;4888471;29;20539;-78
2023/08/18 10:06:17;;;;;;;8.38;5.20;;;20.40;99.90;;;;;;4880972;29;20045;-78
2023/08/18 10:08:43;;;;;;;8.45;5.07;;;20.40;99.90;;;;;;4866184;29;20475;-79
2023/08/18 10:11:11;;;;;;;8.48;5.63;;;20.50;99.90;;;;;;4865087;29;20045;-77
2023/08/18 10:13:37;;;;;;;12.52;5.60;;;20.60;99.90;;;;;;4883266;29;20045;-78
2023/08/18 10:16:06;;;;;;;13.32;5.85;;;20.60;99.90;;;;;;4880184;29;20051;-78
2023/08/18 10:18:33;;;;;;;7.38;5.65;;;20.60;99.90;;;;;;4865651;29;20109;-78
2023/08/18 10:20:59;;;;;;;11.77;5.50;;;20.70;99.90;;;;;;4880543;29;20049;-79
2023/08/18 10:23:29;;;;;;;11.38;6.22;;;20.80;99.90;;;;;;4882968;29;20053;-79
2023/08/18 10:25:55;;;;;;;11.07;6.63;;;21.00;99.90;;;;;;4880544;29;20053;-77
2023/08/18 10:28:26;;;;;;;9.35;6.10;;;21.00;99.90;;;;;;4876429;29;20048;-78
2023/08/18 10:31:04;;;;;;;9.75;6.15;;;21.10;99.90;;;;;;4868904;29;20056;-77
2023/08/18 10:33:31;;;;;;;12.25;6.57;;;21.20;99.90;;;;;;4890536;29;20056;-76
2023/08/18 10:35:58;;;;;;;10.07;6.13;;;21.30;99.90;;;;;;4890297;29;20083;-78
2023/08/18 10:38:28;;;;;;;11.02;6.97;;;21.30;99.90;;;;;;4848608;29;20053;-76
2023/08/18 10:40:54;;;;;;;10.65;6.35;;;21.30;99.90;;;;;;4848496;29;20096;-78
2023/08/18 10:43:20;;;;;;;8.48;6.25;;;21.30;99.90;;;;;;4881157;29;20044;-76
2023/08/18 10:45:50;;;;;;;10.02;6.25;;;21.30;99.90;;;;;;4879459;29;20108;-73
2023/08/18 10:48:16;;;;;;;13.18;5.90;;;21.30;99.90;;;;;;4878845;29;20589;-77
2023/08/18 10:50:47;;;;;;;12.27;6.38;;;21.40;99.90;;;;;;4864281;29;20060;-82
2023/08/18 10:53:15;;;;;;;8.85;6.10;;;21.40;99.90;;;;;;4882717;29;20052;-74
2023/08/18 10:55:43;;;;;;;8.63;5.80;;;21.40;99.90;;;;;;4874491;29;20045;-76
2023/08/18 10:58:09;;;;;;;13.23;6.10;;;21.40;99.90;;;;;;4877856;29;20041;-78
2023/08/18 11:00:36;;;;;;;9.50;6.35;;;21.50;99.90;;;;;;4881603;29;20067;-79
2023/08/18 11:03:05;;;;;;;9.45;5.82;;;21.50;99.90;;;;;;4879461;29;20128;-79
2023/08/18 11:05:31;;;;;;;8.77;5.70;;;21.50;99.90;;;;;;4878618;29;20101;-78
2023/08/18 11:08:01;;;;;;;8.57;6.25;;;21.70;99.90;;;;;;4846916;29;20050;-78
2023/08/18 11:10:27;;;;;;;10.55;5.55;;;21.80;99.90;;;;;;4879630;29;20136;-78
2023/08/18 11:12:54;;;;;;;8.20;6.13;;;21.90;99.90;;;;;;4879742;29;20128;-79
2023/08/18 11:15:21;;;;;;;8.63;6.13;;;21.90;99.90;;;;;;4881545;29;20045;-78
2023/08/18 11:17:48;;;;;;;9.63;6.20;;;22.00;99.90;;;;;;4880436;29;20049;-78
2023/08/18 11:20:14;;;;;;;7.88;5.65;;;22.00;99.90;;;;;;4862514;29;20103;-79
2023/08/18 11:22:45;;;;;;;7.50;5.72;;;22.10;99.90;;;;;;4879863;29;20514;-78
2023/08/18 11:25:11;;;;;;;10.73;6.15;;;22.10;99.90;;;;;;4880048;29;20049;-79
2023/08/18 11:27:41;;;;;;;7.75;6.00;;;22.20;99.90;;;;;;4879697;29;20057;-78
2023/08/18 11:30:11;;;;;;;8.50;5.63;;;22.40;99.90;;;;;;4878905;29;20056;-77
2023/08/18 11:32:38;;;;;;;10.95;6.18;;;22.40;99.90;;;;;;4880820;29;20057;-79
2023/08/18 11:35:09;;;;;;;6.43;5.50;;;22.40;99.90;;;;;;4883122;29;20147;-79
2023/08/18 11:37:40;;;;;;;7.10;6.05;;;22.50;99.90;;;;;;4885576;29;20045;-78
2023/08/18 11:40:10;;;;;;;8.50;5.82;;;22.60;99.90;;;;;;4878114;29;20496;-79
2023/08/18 11:42:57;;;;;;;7.28;5.85;;;22.60;99.90;;;;;;4880147;29;20053;-79
2023/08/18 11:45:24;;;;;;;8.43;6.00;;;22.70;99.90;;;;;;4864160;29;20064;-79
2023/08/18 11:47:57;;;;;;;8.63;5.95;;;22.70;99.90;;;;;;4880279;29;20567;-79
2023/08/18 11:50:38;;;;;;;10.25;6.30;;;22.80;99.90;;;;;;4886907;29;20053;-79
2023/08/18 11:53:05;;;;;;;10.23;6.03;;;22.80;99.90;;;;;;4879897;29;20084;-79
2023/08/18 11:55:40;;;;;;;9.25;5.55;;;22.90;99.90;;;;;;4878665;29;20104;-79
2023/08/18 11:58:10;;;;;;;7.82;5.82;;;22.90;99.90;;;;;;4874981;29;20404;-79
2023/08/18 12:00:39;;;;;;;7.90;6.43;;;22.90;99.90;;;;;;4878280;29;20057;-78
2023/08/18 12:03:07;;;;;;;11.98;6.70;;;22.90;99.90;;;;;;4878940;29;20053;-79
2023/08/18 12:05:38;;;;;;;7.82;5.82;;;22.90;99.90;;;;;;4879494;29;20049;-78
2023/08/18 12:08:09;;;;;;;8.25;6.18;;;23.00;99.90;;;;;;4880383;29;20049;-80
2023/08/18 12:10:34;;;;;;;11.23;5.88;;;23.10;99.90;;;;;;4879467;29;20246;-79
2023/08/18 12:13:00;;;;;;;11.00;5.85;;;23.10;99.90;;;;;;4879574;29;20170;-79
2023/08/18 12:15:26;;;;;;;8.90;6.97;;;23.20;99.90;;;;;;4878108;29;20096;-78
2023/08/18 12:17:54;;;;;;;9.10;6.30;;;23.20;99.90;;;;;;4879699;29;20049;-79
2023/08/18 12:20:20;;;;;;;8.88;6.35;;;23.30;99.90;;;;;;4877953;29;20097;-80
2023/08/18 12:22:48;;;;;;;7.63;6.28;;;23.30;99.90;;;;;;4878917;29;20059;-79
2023/08/18 12:25:15;;;;;;;9.00;6.32;;;23.30;99.90;;;;;;4879506;29;20109;-79
2023/08/18 12:27:41;;;;;;;7.90;5.78;;;23.40;99.90;;;;;;4881378;29;20118;-79
2023/08/18 12:30:07;;;;;;;9.90;6.75;;;23.40;99.90;;;;;;4877683;29;20115;-80
2023/08/18 12:32:33;;;;;;;8.88;6.82;;;23.50;99.90;;;;;;4877369;29;20407;-80
2023/08/18 12:34:59;;;;;;;9.25;7.00;;;23.60;99.90;;;;;;4887722;29;20056;-81
2023/08/18 12:37:24;;;;;;;8.30;6.55;;;23.60;99.90;;;;;;4875903;29;20043;-77
2023/08/18 12:39:50;;;;;;;8.80;6.78;;;23.70;99.90;;;;;;4863263;29;20132;-77
2023/08/18 12:42:16;;;;;;;10.02;7.03;;;23.80;99.90;;;;;;4861355;29;20140;-77